createdAt,value
2023-03-06T00:00:54.395Z,97518.81
2023-03-06T00:01:56.040Z,97508.22
2023-03-06T00:02:57.677Z,97503.31
2023-03-06T00:03:59.263Z,97523.56
2023-03-06T00:05:00.814Z,97505.28
2023-03-06T00:06:03.070Z,97507.63
2023-03-06T00:07:04.607Z,97512.44
2023-03-06T00:08:06.536Z,97513.66
2023-03-06T00:09:08.280Z,97516.31
2023-03-06T00:10:16.053Z,97521.31
2023-03-06T00:11:18.063Z,97503.97
2023-03-06T00:12:19.627Z,97513.03
2023-03-06T00:13:21.154Z,97502.44
2023-03-06T00:14:22.630Z,97506.16
2023-03-06T00:15:24.445Z,97497.38
2023-03-06T00:16:25.999Z,97497.00
2023-03-06T00:17:28.170Z,97504.63
2023-03-06T00:18:29.946Z,97502.97
2023-03-06T00:19:31.453Z,97494.22
2023-03-06T00:20:33.608Z,97493.34
2023-03-06T00:21:35.238Z,97499.66
2023-03-06T00:22:36.830Z,97496.13
2023-03-06T00:23:38.396Z,97494.22
2023-03-06T00:24:39.877Z,97487.06
2023-03-06T00:25:44.746Z,97485.88
2023-03-06T00:26:46.254Z,97486.84
2023-03-06T00:27:48.097Z,97475.38
2023-03-06T00:28:49.669Z,97448.66
2023-03-06T00:29:54.920Z,97489.84
2023-03-06T00:30:56.442Z,97480.81
2023-03-06T00:31:58.045Z,97479.16
2023-03-06T00:32:59.597Z,97485.44
2023-03-06T00:34:01.378Z,97474.72
2023-03-06T00:35:02.930Z,97476.59
2023-03-06T00:36:06.000Z,97475.53
2023-03-06T00:37:07.379Z,97489.78
2023-03-06T00:38:10.138Z,97488.59
2023-03-06T00:39:11.633Z,97480.25
2023-03-06T00:40:15.132Z,97475.72
2023-03-06T00:41:16.674Z,97484.69
2023-03-06T00:42:18.433Z,97480.69
2023-03-06T00:43:19.955Z,97468.03
2023-03-06T00:44:21.481Z,97469.06
2023-03-06T00:45:23.132Z,97473.09
2023-03-06T00:46:24.674Z,97460.63
2023-03-06T00:47:26.207Z,97459.34
2023-03-06T00:48:27.976Z,97465.53
2023-03-06T00:49:29.487Z,97457.50
2023-03-06T00:50:31.385Z,97462.84
2023-03-06T00:51:33.048Z,97460.41
2023-03-06T00:52:34.583Z,97460.50
2023-03-06T00:53:36.077Z,97444.03
2023-03-06T00:54:37.597Z,97465.69
2023-03-06T00:55:39.152Z,97450.38
2023-03-06T00:56:40.673Z,97463.41
2023-03-06T00:57:42.230Z,97416.56
2023-03-06T00:58:43.756Z,97453.53
2023-03-06T00:59:46.143Z,97420.34
2023-03-06T01:00:47.779Z,97448.78
2023-03-06T01:01:49.413Z,97422.13
2023-03-06T01:02:51.239Z,97444.72
2023-03-06T01:03:52.736Z,97454.41
2023-03-06T01:04:54.249Z,97449.66
2023-03-06T01:05:55.769Z,97442.03
2023-03-06T01:06:57.284Z,97446.91
2023-03-06T01:07:58.809Z,97441.19
2023-03-06T01:09:00.339Z,97437.59
2023-03-06T01:10:04.544Z,97444.34
2023-03-06T01:11:06.098Z,97444.31
2023-03-06T01:12:08.043Z,97434.06
2023-03-06T01:13:09.582Z,97439.25
2023-03-06T01:14:11.131Z,97437.19
2023-03-06T01:15:13.482Z,97431.66
2023-03-06T01:16:15.778Z,97430.66
2023-03-06T01:17:17.707Z,97429.97
2023-03-06T01:18:19.279Z,97430.34
2023-03-06T01:19:20.799Z,97420.81
2023-03-06T01:20:22.677Z,97423.56
2023-03-06T01:21:24.385Z,97431.06
2023-03-06T01:22:25.906Z,97431.38
2023-03-06T01:23:27.427Z,97422.56
2023-03-06T01:24:29.007Z,97429.34
2023-03-06T01:25:30.538Z,97426.00
2023-03-06T01:26:32.127Z,97424.03
2023-03-06T01:27:33.696Z,97417.41
2023-03-06T01:28:37.453Z,97419.38
2023-03-06T01:29:39.313Z,97428.81
2023-03-06T01:30:40.885Z,97419.88
2023-03-06T01:31:42.418Z,97414.22
2023-03-06T01:32:44.101Z,97419.13
2023-03-06T01:33:45.674Z,97414.72
2023-03-06T01:34:47.560Z,97403.06
2023-03-06T01:35:49.088Z,97412.19
2023-03-06T01:36:50.676Z,97419.34
2023-03-06T01:37:52.183Z,97410.16
2023-03-06T01:38:53.694Z,97409.47
2023-03-06T01:39:55.290Z,97407.69
2023-03-06T01:40:56.789Z,97409.22
2023-03-06T01:41:58.325Z,97405.94
2023-03-06T01:43:03.780Z,97403.09
2023-03-06T01:44:05.286Z,97399.38
2023-03-06T01:45:12.937Z,97398.66
2023-03-06T01:46:30.352Z,97400.94
2023-03-06T01:47:31.876Z,97395.13
2023-03-06T01:48:34.122Z,97395.16
2023-03-06T01:49:37.217Z,97390.78
2023-03-06T01:50:38.573Z,97393.75
2023-03-06T01:51:43.940Z,97390.47
2023-03-06T01:52:50.658Z,97394.97
2023-03-06T01:53:52.298Z,97391.59
2023-03-06T01:55:10.422Z,97384.91
2023-03-06T01:56:11.924Z,97388.84
2023-03-06T01:57:22.045Z,97385.19
2023-03-06T01:58:23.529Z,97381.84
2023-03-06T01:59:27.184Z,97385.34
2023-03-06T02:00:28.873Z,97380.88
2023-03-06T02:01:31.435Z,97377.34
2023-03-06T02:02:33.149Z,97381.22
2023-03-06T02:03:34.943Z,97375.25
2023-03-06T02:04:37.181Z,97380.81
2023-03-06T02:05:39.558Z,97380.00
2023-03-06T02:06:43.278Z,97374.97
2023-03-06T02:07:44.863Z,97380.13
2023-03-06T02:08:48.098Z,97367.22
2023-03-06T02:09:49.925Z,97376.56
2023-03-06T02:11:12.427Z,97382.44
2023-03-06T02:12:16.695Z,97382.78
2023-03-06T02:13:18.437Z,97379.06
2023-03-06T02:14:20.005Z,97373.03
2023-03-06T02:15:22.911Z,97376.13
2023-03-06T02:16:26.574Z,97367.34
2023-03-06T02:17:28.109Z,97377.31
2023-03-06T02:18:29.816Z,97369.13
2023-03-06T02:19:43.362Z,97372.41
2023-03-06T02:20:49.170Z,97368.28
2023-03-06T02:21:50.713Z,97364.66
2023-03-06T02:23:03.212Z,97371.03
2023-03-06T02:24:33.446Z,97362.31
2023-03-06T02:25:41.626Z,97366.81
2023-03-06T02:26:43.186Z,97361.56
2023-03-06T02:27:44.674Z,97364.91
2023-03-06T02:28:46.157Z,97354.94
2023-03-06T02:29:48.008Z,97360.63
2023-03-06T02:30:51.007Z,97362.22
2023-03-06T02:31:52.456Z,97363.75
2023-03-06T02:32:53.812Z,97361.03
2023-03-06T02:34:24.585Z,97355.19
2023-03-06T02:35:30.787Z,97359.34
2023-03-06T02:36:34.156Z,97356.97
2023-03-06T02:37:35.683Z,97352.81
2023-03-06T02:38:41.415Z,97346.47
2023-03-06T02:39:48.415Z,97361.75
2023-03-06T02:40:50.770Z,97343.72
2023-03-06T02:41:52.294Z,97347.53
2023-03-06T02:42:57.745Z,97329.16
2023-03-06T02:43:59.262Z,97345.22
2023-03-06T02:45:01.683Z,97343.09
2023-03-06T02:46:03.210Z,97346.09
2023-03-06T02:47:04.939Z,97342.31
2023-03-06T02:48:06.814Z,97334.13
2023-03-06T02:49:08.303Z,97342.88
2023-03-06T02:50:10.772Z,97324.41
2023-03-06T02:51:12.277Z,97341.94
2023-03-06T02:52:13.756Z,97336.13
2023-03-06T02:53:16.392Z,97336.22
2023-03-06T02:54:20.774Z,97331.81
2023-03-06T02:55:22.326Z,97334.31
2023-03-06T02:56:23.845Z,97334.03
2023-03-06T02:57:25.314Z,97340.78
2023-03-06T02:58:26.879Z,97333.88
2023-03-06T02:59:28.380Z,97335.22
2023-03-06T03:00:30.433Z,97328.09
2023-03-06T03:01:32.073Z,97324.97
2023-03-06T03:02:33.561Z,97327.13
2023-03-06T03:03:35.158Z,97329.56
2023-03-06T03:04:36.717Z,97330.06
2023-03-06T03:05:38.601Z,97320.22
2023-03-06T03:06:40.089Z,97318.28
2023-03-06T03:07:41.593Z,97320.25
2023-03-06T03:08:43.066Z,97315.88
2023-03-06T03:09:44.969Z,97311.31
2023-03-06T03:10:46.499Z,97319.16
2023-03-06T03:11:48.143Z,97308.38
2023-03-06T03:12:49.808Z,97316.69
2023-03-06T03:13:51.316Z,97310.13
2023-03-06T03:14:52.920Z,97306.19
2023-03-06T03:16:01.314Z,97289.03
2023-03-06T03:17:02.849Z,97312.19
2023-03-06T03:18:04.419Z,97311.50
2023-03-06T03:19:05.972Z,97311.84
2023-03-06T03:20:09.911Z,97308.47
2023-03-06T03:21:12.405Z,97305.69
2023-03-06T03:22:13.921Z,97309.88
2023-03-06T03:23:15.414Z,97308.94
2023-03-06T03:24:16.982Z,97308.00
2023-03-06T03:25:19.004Z,97311.50
2023-03-06T03:26:20.970Z,97307.06
2023-03-06T03:27:22.454Z,97311.75
2023-03-06T03:28:23.941Z,97312.78
2023-03-06T03:29:25.453Z,97304.28
2023-03-06T03:30:26.940Z,97305.78
2023-03-06T03:31:28.598Z,97298.97
2023-03-06T03:32:30.223Z,97310.31
2023-03-06T03:33:31.922Z,97300.16
2023-03-06T03:34:33.417Z,97308.13
2023-03-06T03:35:34.986Z,97312.78
2023-03-06T03:36:36.537Z,97313.03
2023-03-06T03:37:38.112Z,97305.38
2023-03-06T03:38:39.661Z,97306.06
2023-03-06T03:39:41.241Z,97295.88
2023-03-06T03:40:42.734Z,97302.31
2023-03-06T03:41:44.236Z,97292.34
2023-03-06T03:42:45.978Z,97300.78
2023-03-06T03:43:47.458Z,97299.47
2023-03-06T03:44:48.971Z,97298.78
2023-03-06T03:45:50.524Z,97297.72
2023-03-06T03:46:52.025Z,97292.13
2023-03-06T03:47:53.519Z,97300.19
2023-03-06T03:48:55.027Z,97297.84
2023-03-06T03:49:56.813Z,97290.97
2023-03-06T03:51:11.843Z,97294.44
2023-03-06T03:52:13.313Z,97291.56
2023-03-06T03:53:14.816Z,97285.59
2023-03-06T03:54:16.341Z,97294.38
2023-03-06T03:55:18.238Z,97279.00
2023-03-06T03:56:19.742Z,97281.31
2023-03-06T03:57:21.285Z,97280.88
2023-03-06T03:58:22.760Z,97285.41
2023-03-06T03:59:24.417Z,97288.31
2023-03-06T04:00:25.907Z,97270.13
2023-03-06T04:01:27.434Z,97270.59
2023-03-06T04:02:28.921Z,97279.91
2023-03-06T04:03:30.428Z,97272.66
2023-03-06T04:04:32.010Z,97277.31
2023-03-06T04:05:33.923Z,97270.50
2023-03-06T04:06:35.492Z,97263.47
2023-03-06T04:07:37.363Z,97271.91
2023-03-06T04:08:38.873Z,97269.59
2023-03-06T04:09:40.714Z,97265.38
2023-03-06T04:10:42.222Z,97262.09
2023-03-06T04:11:43.741Z,97267.84
2023-03-06T04:12:45.249Z,97267.59
2023-03-06T04:13:46.791Z,97264.91
2023-03-06T04:14:48.365Z,97257.06
2023-03-06T04:15:51.151Z,97254.88
2023-03-06T04:16:52.831Z,97251.78
2023-03-06T04:17:54.415Z,97242.44
2023-03-06T04:18:55.938Z,97250.34
2023-03-06T04:19:57.815Z,97253.75
2023-03-06T04:20:59.349Z,97251.78
2023-03-06T04:22:02.292Z,97245.47
2023-03-06T04:23:03.791Z,97244.44
2023-03-06T04:24:05.976Z,97249.06
2023-03-06T04:25:07.827Z,97247.31
2023-03-06T04:26:09.508Z,97242.97
2023-03-06T04:27:11.054Z,97239.56
2023-03-06T04:28:12.632Z,97251.81
2023-03-06T04:29:14.448Z,97247.19
2023-03-06T04:30:16.190Z,97242.84
2023-03-06T04:31:17.719Z,97233.78
2023-03-06T04:32:21.429Z,97248.94
2023-03-06T04:33:23.296Z,97238.66
2023-03-06T04:34:25.149Z,97239.25
2023-03-06T04:35:27.113Z,97242.25
2023-03-06T04:36:33.451Z,97249.25
2023-03-06T04:37:35.115Z,97247.41
2023-03-06T04:38:36.932Z,97246.91
2023-03-06T04:39:38.809Z,97252.84
2023-03-06T04:40:40.363Z,97246.81
2023-03-06T04:41:42.227Z,97251.63
2023-03-06T04:42:43.929Z,97238.28
2023-03-06T04:43:46.210Z,97245.16
2023-03-06T04:44:47.774Z,97247.47
2023-03-06T04:45:49.387Z,97237.75
2023-03-06T04:46:51.029Z,97252.38
2023-03-06T04:47:52.526Z,97241.06
2023-03-06T04:48:54.018Z,97242.44
2023-03-06T04:49:55.541Z,97237.47
2023-03-06T04:50:57.032Z,97234.19
2023-03-06T04:51:58.582Z,97237.97
2023-03-06T04:53:01.247Z,97238.63
2023-03-06T04:54:04.053Z,97239.97
2023-03-06T04:55:08.665Z,97229.91
2023-03-06T04:56:10.226Z,97233.94
2023-03-06T04:57:12.895Z,97232.56
2023-03-06T04:58:14.408Z,97232.78
2023-03-06T04:59:16.223Z,97229.56
2023-03-06T05:00:22.186Z,97217.66
2023-03-06T05:01:23.683Z,97224.22
2023-03-06T05:02:25.312Z,97225.69
2023-03-06T05:03:26.885Z,97234.56
2023-03-06T05:04:28.430Z,97230.91
2023-03-06T05:05:30.034Z,97235.94
2023-03-06T05:06:31.547Z,97229.09
2023-03-06T05:07:33.051Z,97226.38
2023-03-06T05:08:34.602Z,97228.09
2023-03-06T05:09:37.679Z,97221.91
2023-03-06T05:10:40.312Z,97227.47
2023-03-06T05:11:41.826Z,97229.50
2023-03-06T05:12:43.495Z,97222.75
2023-03-06T05:13:45.023Z,97222.78
2023-03-06T05:14:48.030Z,97231.53
2023-03-06T05:15:49.684Z,97226.66
2023-03-06T05:16:51.206Z,97222.31
2023-03-06T05:17:52.835Z,97225.19
2023-03-06T05:18:54.354Z,97229.03
2023-03-06T05:19:55.889Z,97220.09
2023-03-06T05:20:59.919Z,97218.94
2023-03-06T05:22:01.463Z,97225.03
2023-03-06T05:23:02.993Z,97225.72
2023-03-06T05:24:04.617Z,97220.81
2023-03-06T05:25:06.453Z,97219.56
2023-03-06T05:26:09.225Z,97222.97
2023-03-06T05:27:10.708Z,97219.47
2023-03-06T05:28:12.195Z,97226.69
2023-03-06T05:29:13.712Z,97223.53
2023-03-06T05:30:15.500Z,97221.44
2023-03-06T05:31:17.175Z,97221.22
2023-03-06T05:32:18.787Z,97215.84
2023-03-06T05:33:20.295Z,97210.25
2023-03-06T05:34:21.773Z,97220.88
2023-03-06T05:35:23.545Z,97214.47
2023-03-06T05:36:25.266Z,97207.72
2023-03-06T05:37:26.788Z,97214.69
2023-03-06T05:38:28.822Z,97220.78
2023-03-06T05:39:30.367Z,97210.88
2023-03-06T05:40:31.868Z,97207.00
2023-03-06T05:41:33.390Z,97201.53
2023-03-06T05:42:35.065Z,97211.06
2023-03-06T05:43:36.563Z,97204.97
2023-03-06T05:44:38.188Z,97206.53
2023-03-06T05:45:39.958Z,97212.81
2023-03-06T05:46:41.501Z,97201.00
2023-03-06T05:47:43.073Z,97211.13
2023-03-06T05:48:46.833Z,97201.94
2023-03-06T05:49:48.561Z,97202.91
2023-03-06T05:50:55.628Z,97207.34
2023-03-06T05:51:57.123Z,97202.34
2023-03-06T05:52:58.631Z,97197.56
2023-03-06T05:54:00.140Z,97193.13
2023-03-06T05:55:01.758Z,97188.22
2023-03-06T05:56:05.100Z,97194.41
2023-03-06T05:57:06.730Z,97198.94
2023-03-06T05:58:08.536Z,97192.28
2023-03-06T05:59:10.056Z,97196.03
2023-03-06T06:00:12.671Z,97187.53
2023-03-06T06:01:18.597Z,97192.53
2023-03-06T06:02:20.133Z,97190.47
2023-03-06T06:03:22.038Z,97195.06
2023-03-06T06:04:24.241Z,97195.06
2023-03-06T06:05:25.760Z,97198.34
2023-03-06T06:06:27.268Z,97194.75
2023-03-06T06:07:28.819Z,97199.63
2023-03-06T06:08:30.693Z,97198.22
2023-03-06T06:09:32.363Z,97193.19
2023-03-06T06:10:33.851Z,97188.88
2023-03-06T06:11:35.363Z,97193.94
2023-03-06T06:12:36.853Z,97189.22
2023-03-06T06:13:38.561Z,97191.34
2023-03-06T06:14:40.060Z,97188.84
2023-03-06T06:15:41.576Z,97186.31
2023-03-06T06:16:43.106Z,97178.63
2023-03-06T06:17:44.622Z,97172.31
2023-03-06T06:18:46.205Z,97184.94
2023-03-06T06:19:47.860Z,97182.84
2023-03-06T06:20:49.352Z,97187.75
2023-03-06T06:21:52.334Z,97179.94
2023-03-06T06:22:53.940Z,97188.19
2023-03-06T06:23:55.417Z,97181.78
2023-03-06T06:24:56.924Z,97175.84
2023-03-06T06:26:02.404Z,97182.84
2023-03-06T06:27:04.328Z,97183.44
2023-03-06T06:28:05.837Z,97188.19
2023-03-06T06:29:07.366Z,97182.38
2023-03-06T06:30:10.229Z,97177.94
2023-03-06T06:31:12.426Z,97184.03
2023-03-06T06:32:14.118Z,97184.34
2023-03-06T06:33:15.639Z,97172.38
2023-03-06T06:34:17.265Z,97181.81
2023-03-06T06:35:18.810Z,97179.13
2023-03-06T06:36:20.455Z,97184.13
2023-03-06T06:37:22.509Z,97185.44
2023-03-06T06:38:24.206Z,97187.19
2023-03-06T06:39:25.705Z,97175.06
2023-03-06T06:40:27.649Z,97185.91
2023-03-06T06:41:54.985Z,97189.88
2023-03-06T06:42:51.391Z,97181.44
2023-03-06T06:43:57.109Z,97180.53
2023-03-06T06:45:00.398Z,97189.78
2023-03-06T06:46:24.282Z,97184.28
2023-03-06T06:47:25.440Z,97182.88
2023-03-06T06:48:27.339Z,97185.91
2023-03-06T06:49:28.986Z,97178.22
2023-03-06T06:50:30.530Z,97187.78
2023-03-06T06:51:32.774Z,97189.63
2023-03-06T06:52:34.399Z,97172.25
2023-03-06T06:53:35.951Z,97185.75
2023-03-06T06:54:37.640Z,97188.22
2023-03-06T06:55:39.489Z,97187.28
2023-03-06T06:56:41.049Z,97190.78
2023-03-06T06:57:42.641Z,97183.09
2023-03-06T06:58:44.109Z,97183.31
2023-03-06T06:59:45.636Z,97190.31
2023-03-06T07:00:47.133Z,97188.59
2023-03-06T07:01:48.721Z,97184.97
2023-03-06T07:02:51.233Z,97189.88
2023-03-06T07:03:55.928Z,97189.16
2023-03-06T07:05:04.100Z,97192.28
2023-03-06T07:06:06.996Z,97190.53
2023-03-06T07:07:08.707Z,97194.75
2023-03-06T07:08:10.342Z,97192.91
2023-03-06T07:09:12.102Z,97199.31
2023-03-06T07:10:14.770Z,97197.31
2023-03-06T07:11:17.690Z,97197.78
2023-03-06T07:12:19.609Z,97198.94
2023-03-06T07:13:21.130Z,97198.50
2023-03-06T07:14:22.670Z,97192.09
2023-03-06T07:15:26.821Z,97200.97
2023-03-06T07:16:28.428Z,97196.88
2023-03-06T07:17:30.328Z,97195.44
2023-03-06T07:18:31.830Z,97200.25
2023-03-06T07:19:33.467Z,97198.72
2023-03-06T07:20:35.005Z,97203.28
2023-03-06T07:21:36.548Z,97206.56
2023-03-06T07:22:50.286Z,97202.09
2023-03-06T07:23:52.665Z,97205.16
2023-03-06T07:24:54.288Z,97199.78
2023-03-06T07:25:55.919Z,97200.97
2023-03-06T07:26:57.682Z,97207.47
2023-03-06T07:27:59.568Z,97200.81
2023-03-06T07:29:01.613Z,97203.19
2023-03-06T07:30:03.246Z,97201.41
2023-03-06T07:31:09.518Z,97201.28
2023-03-06T07:32:11.465Z,97202.91
2023-03-06T07:33:13.080Z,97199.78
2023-03-06T07:34:14.753Z,97180.91
2023-03-06T07:35:20.479Z,97194.41
2023-03-06T07:36:23.248Z,97205.72
2023-03-06T07:37:25.086Z,97193.94
2023-03-06T07:38:26.688Z,97201.06
2023-03-06T07:39:30.130Z,97194.75
2023-03-06T07:40:31.756Z,97198.00
2023-03-06T07:41:33.249Z,97198.47
2023-03-06T07:42:34.971Z,97196.84
2023-03-06T07:43:36.489Z,97196.03
2023-03-06T07:44:38.066Z,97200.22
2023-03-06T07:45:39.622Z,97200.72
2023-03-06T07:46:41.312Z,97192.19
2023-03-06T07:47:43.208Z,97192.88
2023-03-06T07:48:44.915Z,97202.66
2023-03-06T07:49:46.501Z,97191.91
2023-03-06T07:50:55.595Z,97203.84
2023-03-06T07:51:58.009Z,97207.94
2023-03-06T07:52:59.963Z,97203.50
2023-03-06T07:54:01.505Z,97206.75
2023-03-06T07:55:03.121Z,97208.50
2023-03-06T07:56:08.852Z,97205.47
2023-03-06T07:57:10.414Z,97201.84
2023-03-06T07:58:11.942Z,97211.06
2023-03-06T07:59:13.478Z,97201.41
2023-03-06T08:00:15.326Z,97195.56
2023-03-06T08:01:19.685Z,97204.66
2023-03-06T08:02:21.520Z,97208.16
2023-03-06T08:03:23.027Z,97208.72
2023-03-06T08:04:24.600Z,97199.63
2023-03-06T08:05:26.093Z,97203.00
2023-03-06T08:06:27.950Z,97206.19
2023-03-06T08:07:30.040Z,97220.41
2023-03-06T08:08:31.583Z,97213.66
2023-03-06T08:09:34.061Z,97206.69
2023-03-06T08:10:35.560Z,97209.59
2023-03-06T08:11:37.047Z,97202.56
2023-03-06T08:12:38.883Z,97208.88
2023-03-06T08:13:40.508Z,97215.41
2023-03-06T08:14:42.021Z,97214.72
2023-03-06T08:15:48.011Z,97209.59
2023-03-06T08:16:51.192Z,97205.63
2023-03-06T08:17:53.238Z,97211.53
2023-03-06T08:18:54.938Z,97205.34
2023-03-06T08:19:56.553Z,97213.06
2023-03-06T08:21:08.518Z,97211.03
2023-03-06T08:22:11.151Z,97211.00
2023-03-06T08:23:12.641Z,97198.88
2023-03-06T08:24:16.641Z,97212.25
2023-03-06T08:25:18.268Z,97214.44
2023-03-06T08:26:21.653Z,97199.91
2023-03-06T08:27:23.165Z,97218.59
2023-03-06T08:28:24.843Z,97205.94
2023-03-06T08:29:26.938Z,97196.84
2023-03-06T08:30:29.293Z,97207.22
2023-03-06T08:31:33.294Z,97216.66
2023-03-06T08:32:36.583Z,97223.75
2023-03-06T08:33:38.517Z,97218.03
2023-03-06T08:34:41.166Z,97216.03
2023-03-06T08:35:42.713Z,97217.78
2023-03-06T08:36:44.254Z,97216.22
2023-03-06T08:37:45.820Z,97223.34
2023-03-06T08:38:47.350Z,97215.41
2023-03-06T08:39:48.876Z,97213.06
2023-03-06T08:40:50.477Z,97222.47
2023-03-06T08:41:52.316Z,97222.47
2023-03-06T08:42:53.825Z,97218.94
2023-03-06T08:43:55.444Z,97218.44
2023-03-06T08:44:57.002Z,97210.34
2023-03-06T08:45:58.635Z,97219.16
2023-03-06T08:47:00.602Z,97218.22
2023-03-06T08:48:02.192Z,97211.09
2023-03-06T08:49:03.829Z,97218.28
2023-03-06T08:50:05.547Z,97211.03
2023-03-06T08:51:08.886Z,97214.97
2023-03-06T08:52:11.150Z,97220.53
2023-03-06T08:53:12.749Z,97215.97
2023-03-06T08:54:14.427Z,97208.66
2023-03-06T08:55:16.141Z,97221.81
2023-03-06T08:56:17.978Z,97205.19
2023-03-06T08:57:19.882Z,97213.53
2023-03-06T08:58:21.425Z,97214.69
2023-03-06T08:59:24.694Z,97213.88
2023-03-06T09:00:26.360Z,97215.34
2023-03-06T09:01:30.128Z,97209.25
2023-03-06T09:02:32.350Z,97211.94
2023-03-06T09:03:33.843Z,97218.94
2023-03-06T09:04:35.350Z,97211.22
2023-03-06T09:05:36.990Z,97208.50
2023-03-06T09:06:41.616Z,97212.41
2023-03-06T09:07:43.313Z,97215.78
2023-03-06T09:08:44.893Z,97223.28
2023-03-06T09:09:46.485Z,97218.25
2023-03-06T09:10:48.165Z,97208.84
2023-03-06T09:11:51.473Z,97214.44
2023-03-06T09:12:54.799Z,97216.41
2023-03-06T09:13:56.779Z,97217.91
2023-03-06T09:14:58.280Z,97215.69
2023-03-06T09:16:00.091Z,97215.22
2023-03-06T09:17:01.961Z,97215.69
2023-03-06T09:18:03.558Z,97219.31
2023-03-06T09:19:05.145Z,97214.97
2023-03-06T09:20:09.267Z,97213.06
2023-03-06T09:21:11.961Z,97210.94
2023-03-06T09:22:13.784Z,97217.94
2023-03-06T09:23:15.298Z,97221.72
2023-03-06T09:24:16.830Z,97218.50
2023-03-06T09:25:20.420Z,97205.34
2023-03-06T09:26:27.994Z,97219.59
2023-03-06T09:27:34.526Z,97211.78
2023-03-06T09:28:36.700Z,97215.00
2023-03-06T09:29:38.200Z,97212.41
2023-03-06T09:30:40.941Z,97215.53
2023-03-06T09:31:42.461Z,97207.44
2023-03-06T09:32:44.111Z,97215.03
2023-03-06T09:33:45.688Z,97214.09
2023-03-06T09:34:47.226Z,97218.47
2023-03-06T09:35:58.968Z,97213.91
2023-03-06T09:37:02.436Z,97215.75
2023-03-06T09:38:04.003Z,97215.63
2023-03-06T09:39:05.558Z,97214.63
2023-03-06T09:40:07.630Z,97208.69
2023-03-06T09:41:31.615Z,97212.75
2023-03-06T09:42:34.371Z,97210.31
2023-03-06T09:43:46.939Z,97208.03
2023-03-06T09:44:55.941Z,97204.28
2023-03-06T09:45:58.431Z,97209.59
2023-03-06T09:47:17.735Z,97217.16
2023-03-06T09:48:19.254Z,97203.97
2023-03-06T09:49:52.107Z,97209.19
2023-03-06T09:51:00.796Z,97222.00
2023-03-06T09:52:22.662Z,97213.75
2023-03-06T09:53:59.317Z,97212.81
2023-03-06T09:55:11.665Z,97214.97
2023-03-06T09:56:19.307Z,97206.69
2023-03-06T09:57:37.452Z,97206.91
2023-03-06T09:58:42.479Z,97210.41
2023-03-06T09:59:45.261Z,97205.22
2023-03-06T10:00:48.336Z,97214.34
2023-03-06T10:02:01.942Z,97203.59
2023-03-06T10:03:03.387Z,97204.59
2023-03-06T10:04:48.371Z,97218.19
2023-03-06T10:05:55.271Z,97205.22
2023-03-06T10:07:00.261Z,97213.28
2023-03-06T10:08:25.964Z,97219.69
2023-03-06T10:09:45.225Z,97216.41
2023-03-06T10:11:02.064Z,97212.22
2023-03-06T10:12:26.805Z,97216.63
2023-03-06T10:13:29.293Z,97225.66
2023-03-06T10:14:38.812Z,97222.94
2023-03-06T10:15:41.299Z,97218.09
2023-03-06T10:16:43.547Z,97226.44
2023-03-06T10:17:45.112Z,97225.19
2023-03-06T10:18:46.631Z,97233.66
2023-03-06T10:19:48.294Z,97226.97
2023-03-06T10:20:54.214Z,97226.81
2023-03-06T10:22:06.193Z,97234.81
2023-03-06T10:23:12.922Z,97221.88
2023-03-06T10:24:23.151Z,97222.69
2023-03-06T10:25:27.924Z,97230.69
2023-03-06T10:26:43.618Z,97228.81
2023-03-06T10:27:50.226Z,97225.38
2023-03-06T10:28:57.959Z,97225.97
2023-03-06T10:30:21.541Z,97225.09
2023-03-06T10:31:26.877Z,97235.72
2023-03-06T10:32:58.572Z,97230.16
2023-03-06T10:34:22.670Z,97223.28
2023-03-06T10:35:48.377Z,97227.63
2023-03-06T10:36:50.642Z,97230.75
2023-03-06T10:37:56.896Z,97229.88
2023-03-06T10:38:58.564Z,97219.47
2023-03-06T10:40:08.684Z,97215.88
2023-03-06T10:41:12.724Z,97229.75
2023-03-06T10:42:14.253Z,97229.47
2023-03-06T10:43:17.004Z,97221.06
2023-03-06T10:44:19.841Z,97230.81
2023-03-06T10:45:21.558Z,97226.81
2023-03-06T10:46:32.856Z,97217.13
2023-03-06T10:47:38.121Z,97220.69
2023-03-06T10:48:42.014Z,97220.28
2023-03-06T10:49:43.703Z,97225.59
2023-03-06T10:50:45.217Z,97225.56
2023-03-06T10:52:07.181Z,97219.34
2023-03-06T10:53:19.000Z,97219.53
2023-03-06T10:54:20.680Z,97223.47
2023-03-06T10:55:25.366Z,97216.13
2023-03-06T10:56:31.440Z,97231.47
2023-03-06T10:57:33.026Z,97221.25
2023-03-06T10:58:34.750Z,97217.44
2023-03-06T10:59:36.279Z,97221.06
2023-03-06T11:00:37.819Z,97224.59
2023-03-06T11:01:40.993Z,97226.16
2023-03-06T11:02:42.635Z,97219.16
2023-03-06T11:03:44.250Z,97219.00
2023-03-06T11:04:46.798Z,97225.06
2023-03-06T11:06:05.846Z,97217.81
2023-03-06T11:07:18.954Z,97223.47
2023-03-06T11:08:22.005Z,97221.13
2023-03-06T11:09:26.487Z,97212.59
2023-03-06T11:10:29.431Z,97215.50
2023-03-06T11:11:37.402Z,97207.56
2023-03-06T11:12:41.023Z,97211.38
2023-03-06T11:13:43.644Z,97214.16
2023-03-06T11:14:45.226Z,97211.78
2023-03-06T11:15:59.765Z,97211.00
2023-03-06T11:17:01.310Z,97217.13
2023-03-06T11:18:09.854Z,97208.53
2023-03-06T11:19:26.558Z,97203.50
2023-03-06T11:20:48.631Z,97196.94
2023-03-06T11:22:18.690Z,97200.03
2023-03-06T11:23:43.888Z,97205.03
2023-03-06T11:24:48.395Z,97193.59
2023-03-06T11:25:58.352Z,97193.00
2023-03-06T11:27:01.065Z,97195.84
2023-03-06T11:28:07.595Z,97185.75
2023-03-06T11:29:22.434Z,97192.44
2023-03-06T11:30:26.829Z,97195.34
2023-03-06T11:31:31.926Z,97201.09
2023-03-06T11:32:44.057Z,97192.06
2023-03-06T11:34:00.334Z,97190.94
2023-03-06T11:35:05.395Z,97188.34
2023-03-06T11:36:13.898Z,97192.16
2023-03-06T11:37:15.759Z,97194.00
2023-03-06T11:38:42.144Z,97191.50
2023-03-06T11:39:50.244Z,97194.34
2023-03-06T11:40:54.140Z,97188.38
2023-03-06T11:42:04.494Z,97185.22
2023-03-06T11:43:17.174Z,97192.00
2023-03-06T11:44:37.371Z,97177.91
2023-03-06T11:45:59.102Z,97187.16
2023-03-06T11:47:06.880Z,97179.56
2023-03-06T11:48:14.292Z,97178.59
2023-03-06T11:49:30.894Z,97181.34
2023-03-06T11:50:37.626Z,97182.16
2023-03-06T11:51:43.842Z,97170.56
2023-03-06T11:52:59.237Z,97171.56
2023-03-06T11:54:00.947Z,97173.13
2023-03-06T11:55:02.496Z,97165.72
2023-03-06T11:56:18.856Z,97164.97
2023-03-06T11:57:25.834Z,97151.94
2023-03-06T11:58:48.629Z,97159.28
2023-03-06T12:00:35.277Z,97162.09
2023-03-06T12:01:39.758Z,97154.72
2023-03-06T12:03:00.211Z,97166.06
2023-03-06T12:04:07.484Z,97162.00
2023-03-06T12:05:48.061Z,97166.66
2023-03-06T12:07:23.765Z,97166.69
2023-03-06T12:08:47.120Z,97160.44
2023-03-06T12:10:01.540Z,97156.09
2023-03-06T12:11:22.739Z,97165.34
2023-03-06T12:12:39.601Z,97161.78
2023-03-06T12:13:54.117Z,97155.22
2023-03-06T12:15:10.363Z,97168.16
2023-03-06T12:16:42.733Z,97150.88
2023-03-06T12:17:59.052Z,97157.72
2023-03-06T12:19:24.701Z,97153.94
2023-03-06T12:20:36.533Z,97151.22
2023-03-06T12:22:16.776Z,97148.63
2023-03-06T12:23:41.812Z,97149.72
2023-03-06T12:25:05.210Z,97147.22
2023-03-06T12:26:40.247Z,97155.28
2023-03-06T12:27:54.236Z,97153.84
2023-03-06T12:29:19.843Z,97141.84
2023-03-06T12:30:43.078Z,97138.06
2023-03-06T12:32:03.408Z,97145.06
2023-03-06T12:33:50.457Z,97136.72
2023-03-06T12:34:57.953Z,97132.63
2023-03-06T12:36:24.243Z,97130.75
2023-03-06T12:37:39.974Z,97133.22
2023-03-06T12:38:56.389Z,97129.84